createdAt,value
2018-06-14T00:01:13.440Z,5.00
2018-06-14T00:05:16.935Z,5.17
2018-06-14T00:09:20.458Z,5.43
2018-06-14T00:13:23.973Z,5.40
2018-06-14T00:17:27.729Z,5.37
2018-06-14T00:21:31.271Z,4.73
2018-06-14T00:25:34.815Z,5.00
2018-06-14T00:29:38.430Z,5.20
2018-06-14T00:33:42.291Z,4.93
2018-06-14T00:37:45.794Z,5.33
2018-06-14T00:41:49.488Z,4.97
2018-06-14T00:45:53.002Z,4.77
2018-06-14T00:49:56.652Z,4.90
2018-06-14T00:54:00.158Z,5.10
2018-06-14T00:58:09.131Z,5.03
2018-06-14T01:02:12.758Z,4.57
2018-06-14T01:06:16.291Z,5.33
2018-06-14T01:10:19.872Z,5.20
2018-06-14T01:14:23.563Z,5.03
2018-06-14T01:18:27.254Z,5.23
2018-06-14T01:22:30.943Z,5.07
2018-06-14T01:26:34.482Z,4.90
2018-06-14T01:30:38.220Z,4.97
2018-06-14T01:34:43.081Z,4.87
2018-06-14T01:38:46.715Z,4.47
2018-06-14T01:42:50.207Z,4.87
2018-06-14T01:46:54.043Z,5.00
2018-06-14T01:50:57.818Z,4.40
2018-06-14T01:55:02.513Z,5.17
2018-06-14T01:59:06.613Z,4.47
2018-06-14T02:03:10.446Z,4.90
2018-06-14T02:07:14.081Z,4.00
2018-06-14T02:11:17.983Z,4.47
2018-06-14T02:15:21.534Z,4.63
2018-06-14T02:19:25.297Z,4.17
2018-06-14T02:23:29.168Z,3.90
2018-06-14T02:27:32.824Z,4.17
2018-06-14T02:31:36.412Z,4.43
2018-06-14T02:35:40.523Z,4.00
2018-06-14T02:39:44.187Z,4.20
2018-06-14T02:43:47.757Z,4.03
2018-06-14T02:47:51.251Z,4.10
2018-06-14T02:51:54.819Z,4.67
2018-06-14T02:56:08.257Z,4.80
2018-06-14T03:00:12.593Z,4.07
2018-06-14T03:04:16.110Z,4.30
2018-06-14T03:08:19.711Z,4.53
2018-06-14T03:12:23.231Z,4.23
2018-06-14T03:16:27.089Z,3.97
2018-06-14T03:20:30.564Z,3.73
2018-06-14T03:24:34.358Z,4.60
2018-06-14T03:28:37.903Z,4.00
2018-06-14T03:32:51.894Z,4.30
2018-06-14T03:36:55.490Z,4.00
2018-06-14T03:40:59.255Z,4.10
2018-06-14T03:45:02.755Z,3.80
2018-06-14T03:49:06.610Z,3.87
2018-06-14T03:53:12.454Z,4.23
2018-06-14T03:57:16.730Z,3.77
2018-06-14T04:01:20.238Z,4.30
2018-06-14T04:05:24.006Z,3.60
2018-06-14T04:09:27.503Z,3.27
2018-06-14T04:13:31.296Z,4.00
2018-06-14T04:17:34.967Z,3.30
2018-06-14T04:21:38.557Z,2.80
2018-06-14T04:25:42.037Z,2.53
2018-06-14T04:29:45.970Z,3.70
2018-06-14T04:33:49.574Z,4.27
2018-06-14T04:37:59.373Z,3.67
2018-06-14T04:42:02.903Z,3.47
2018-06-14T04:46:06.707Z,3.37
2018-06-14T04:50:10.183Z,5.40
2018-06-14T04:54:13.879Z,4.70
2018-06-14T04:58:17.658Z,4.60
2018-06-14T05:02:32.180Z,5.57
2018-06-14T05:06:35.723Z,5.83
2018-06-14T05:10:39.266Z,6.57
2018-06-14T05:14:42.906Z,6.83
2018-06-14T05:18:46.908Z,6.47
2018-06-14T05:22:50.639Z,6.20
2018-06-14T05:26:54.183Z,6.20
2018-06-14T05:30:57.688Z,6.17
2018-06-14T05:35:01.638Z,6.67
2018-06-14T05:39:08.630Z,6.90
2018-06-14T05:43:11.902Z,6.47
2018-06-14T05:47:15.577Z,7.90
2018-06-14T05:51:19.535Z,5.53
2018-06-14T05:55:23.231Z,5.80
2018-06-14T05:59:26.867Z,5.07
2018-06-14T06:03:31.538Z,5.47
2018-06-14T06:07:36.539Z,5.53
2018-06-14T06:11:40.471Z,6.33
2018-06-14T06:15:44.403Z,6.60
2018-06-14T06:19:48.194Z,7.10
2018-06-14T06:23:52.175Z,7.00
2018-06-14T06:27:55.835Z,6.30
2018-06-14T06:32:00.463Z,6.27
2018-06-14T06:36:03.778Z,6.30
2018-06-14T06:40:07.574Z,6.33
2018-06-14T06:44:11.295Z,6.13
2018-06-14T06:48:15.217Z,6.07
2018-06-14T06:52:18.948Z,6.17
2018-06-14T06:56:23.055Z,4.78
2018-06-14T07:00:26.567Z,5.00
2018-06-14T07:04:32.578Z,5.00
2018-06-14T07:08:36.161Z,4.90
2018-06-14T07:12:39.916Z,4.63
2018-06-14T07:16:43.780Z,4.90
2018-06-14T07:20:47.554Z,4.90
2018-06-14T07:24:51.229Z,4.62
2018-06-14T07:28:55.987Z,4.20
2018-06-14T07:32:59.478Z,3.70
2018-06-14T07:37:04.779Z,3.17
2018-06-14T07:41:09.371Z,4.58
2018-06-14T07:45:13.595Z,4.00
2018-06-14T07:49:17.572Z,3.42
2018-06-14T07:53:23.095Z,4.17
2018-06-14T07:57:26.627Z,3.13
2018-06-14T08:01:31.787Z,3.77
2018-06-14T08:05:35.370Z,4.00
2018-06-14T08:09:39.278Z,3.95
2018-06-14T08:13:42.852Z,5.10
2018-06-14T08:17:46.895Z,4.15
2018-06-14T08:21:50.438Z,5.55
2018-06-14T08:25:54.054Z,4.45
2018-06-14T08:29:58.700Z,4.47
2018-06-14T08:34:02.617Z,4.63
2018-06-14T08:38:06.198Z,5.00
2018-06-14T08:42:10.718Z,4.20
2018-06-14T08:46:14.444Z,5.00
2018-06-14T08:50:18.105Z,4.30
2018-06-14T08:54:21.913Z,5.00
2018-06-14T08:58:25.618Z,4.80
2018-06-14T09:02:29.154Z,4.90
2018-06-14T09:06:33.569Z,5.40
2018-06-14T09:10:37.119Z,5.10
2018-06-14T09:14:41.283Z,4.80
2018-06-14T09:18:45.100Z,3.60
2018-06-14T09:22:49.125Z,4.17
2018-06-14T09:26:52.664Z,4.20
2018-06-14T09:30:56.490Z,4.00
2018-06-14T09:35:10.731Z,4.30
2018-06-14T09:39:14.936Z,4.47
2018-06-14T09:43:18.821Z,4.27
2018-06-14T09:47:22.599Z,3.40
2018-06-14T09:51:26.091Z,4.17
2018-06-14T09:55:29.943Z,4.07
2018-06-14T09:59:33.430Z,3.80
2018-06-14T10:03:37.132Z,3.43
2018-06-14T10:07:40.810Z,3.57
2018-06-14T10:11:46.903Z,3.37
2018-06-14T10:15:51.142Z,3.33
2018-06-14T10:19:55.252Z,4.50
2018-06-14T10:23:58.750Z,3.50
2018-06-14T10:28:08.015Z,3.93
2018-06-14T10:32:11.730Z,3.30
2018-06-14T10:36:16.931Z,3.70
2018-06-14T10:40:22.563Z,4.23
2018-06-14T10:44:26.319Z,3.50
2018-06-14T10:48:29.891Z,3.50
2018-06-14T10:52:33.720Z,3.43
2018-06-14T10:56:37.684Z,3.10
2018-06-14T11:00:41.975Z,3.40
2018-06-14T11:04:45.970Z,3.47
2018-06-14T11:08:49.998Z,3.27
2018-06-14T11:12:54.178Z,3.40
2018-06-14T11:16:57.915Z,2.90
2018-06-14T11:21:01.558Z,3.40
2018-06-14T11:25:05.723Z,3.10
2018-06-14T11:29:10.042Z,2.73
2018-06-14T11:33:13.929Z,2.67
2018-06-14T11:37:17.791Z,2.80
2018-06-14T11:41:21.574Z,2.40
2018-06-14T11:45:25.310Z,2.50
2018-06-14T11:49:30.033Z,2.50
2018-06-14T11:53:33.802Z,2.57
2018-06-14T11:57:37.702Z,2.90
2018-06-14T12:01:45.604Z,2.67
2018-06-14T12:05:50.247Z,2.70
2018-06-14T12:10:01.277Z,2.10
2018-06-14T12:14:05.137Z,2.20
2018-06-14T12:18:09.358Z,2.53
2018-06-14T12:22:14.643Z,1.90
2018-06-14T12:26:19.540Z,1.97
2018-06-14T12:30:23.753Z,2.30
2018-06-14T12:34:27.397Z,2.30
2018-06-14T12:38:30.982Z,2.20
2018-06-14T12:42:34.968Z,2.10
2018-06-14T12:46:38.819Z,2.03
2018-06-14T12:50:42.509Z,1.90
2018-06-14T12:54:47.024Z,2.00
2018-06-14T12:58:51.172Z,2.30
2018-06-14T13:02:55.067Z,2.20
2018-06-14T13:06:58.639Z,2.60
2018-06-14T13:11:02.254Z,2.10
2018-06-14T13:15:07.061Z,2.10
2018-06-14T13:19:10.735Z,2.33
2018-06-14T13:23:14.836Z,2.27
2018-06-14T13:27:18.890Z,2.50
2018-06-14T13:31:23.055Z,2.40
2018-06-14T13:35:26.892Z,2.40
2018-06-14T13:39:30.414Z,2.40
2018-06-14T13:43:34.135Z,2.53
2018-06-14T13:47:38.702Z,2.43
2018-06-14T13:51:42.295Z,2.67
2018-06-14T13:55:47.016Z,2.20
2018-06-14T13:59:51.595Z,2.33
2018-06-14T14:03:55.087Z,2.50
2018-06-14T14:07:58.798Z,2.07
2018-06-14T14:12:02.328Z,2.70
2018-06-14T14:16:12.473Z,2.80
2018-06-14T14:20:17.161Z,2.40
2018-06-14T14:24:22.346Z,2.70
2018-06-14T14:28:27.992Z,2.70
2018-06-14T14:32:31.686Z,2.37
2018-06-14T14:36:35.172Z,2.40
2018-06-14T14:40:38.866Z,2.40
2018-06-14T14:44:42.516Z,2.40
2018-06-14T14:48:46.816Z,2.47
2018-06-14T14:52:50.318Z,2.37
2018-06-14T14:56:53.904Z,2.60
2018-06-14T15:00:59.450Z,2.63
2018-06-14T15:05:03.182Z,2.53
2018-06-14T15:09:10.426Z,2.83
2018-06-14T15:13:14.283Z,2.60
2018-06-14T15:17:18.011Z,2.60
2018-06-14T15:21:21.928Z,2.53
2018-06-14T15:25:25.494Z,2.33
2018-06-14T15:29:29.242Z,2.50
2018-06-14T15:33:32.959Z,2.30
2018-06-14T15:37:36.567Z,2.30
2018-06-14T15:41:40.080Z,2.60
2018-06-14T15:45:47.213Z,2.53
2018-06-14T15:50:04.114Z,2.00
2018-06-14T15:54:07.905Z,2.40
2018-06-14T15:58:12.740Z,2.30
2018-06-14T16:02:16.543Z,1.90
2018-06-14T16:06:21.094Z,1.90
2018-06-14T16:10:26.734Z,2.13
2018-06-14T16:14:30.319Z,2.50
2018-06-14T16:18:34.295Z,2.20
2018-06-14T16:22:37.815Z,2.20
2018-06-14T16:26:41.572Z,2.10
2018-06-14T16:30:45.421Z,1.90
2018-06-14T16:34:51.998Z,2.30
2018-06-14T16:38:55.590Z,2.07
2018-06-14T16:43:01.253Z,2.50
2018-06-14T16:47:04.793Z,1.97
2018-06-14T16:51:08.206Z,2.10
2018-06-14T16:55:11.451Z,2.50
2018-06-14T16:59:16.611Z,2.50
2018-06-14T17:03:20.821Z,2.33
2018-06-14T17:07:27.410Z,2.03
2018-06-14T17:11:31.043Z,3.00
2018-06-14T17:15:35.649Z,2.00
2018-06-14T17:19:39.261Z,2.20
2018-06-14T17:23:45.242Z,2.00
2018-06-14T17:27:49.881Z,1.90
2018-06-14T17:31:53.541Z,2.40
2018-06-14T17:35:57.132Z,2.07
2018-06-14T17:40:04.691Z,2.20
2018-06-14T17:44:17.755Z,2.20
2018-06-14T17:48:24.054Z,2.40
2018-06-14T17:52:27.802Z,2.23
2018-06-14T17:56:31.524Z,2.80
2018-06-14T18:00:35.111Z,2.30
2018-06-14T18:04:44.450Z,2.57
2018-06-14T18:08:50.007Z,2.50
2018-06-14T18:12:54.735Z,2.83
2018-06-14T18:16:59.310Z,2.43
2018-06-14T18:21:06.405Z,3.20
2018-06-14T18:25:10.121Z,2.50
2018-06-14T18:29:15.054Z,2.60
2018-06-14T18:33:24.095Z,2.90
2018-06-14T18:37:29.847Z,3.57
2018-06-14T18:41:35.622Z,4.30
2018-06-14T18:45:42.696Z,4.10
2018-06-14T18:49:47.984Z,4.00
2018-06-14T18:53:51.766Z,5.17
2018-06-14T18:58:02.393Z,5.63
2018-06-14T19:02:06.314Z,4.43
2018-06-14T19:06:09.869Z,4.17
2018-06-14T19:10:14.913Z,5.60
2018-06-14T19:14:18.758Z,5.40
2018-06-14T19:18:22.485Z,4.97
2018-06-14T19:22:25.978Z,5.67
2018-06-14T19:26:29.982Z,5.80
2018-06-14T19:30:34.522Z,6.23
2018-06-14T19:34:38.136Z,5.50
2018-06-14T19:38:45.734Z,5.30
2018-06-14T19:42:50.112Z,5.77
2018-06-14T19:46:53.985Z,5.70
2018-06-14T19:51:00.694Z,5.30
2018-06-14T19:55:06.966Z,6.43
2018-06-14T19:59:10.506Z,6.63
2018-06-14T20:03:14.349Z,6.27
2018-06-14T20:07:18.174Z,6.93
2018-06-14T20:11:21.766Z,6.80
2018-06-14T20:15:25.622Z,7.13
2018-06-14T20:19:29.148Z,7.03
2018-06-14T20:23:33.012Z,6.27
2018-06-14T20:27:36.516Z,6.77
2018-06-14T20:31:40.059Z,7.37
2018-06-14T20:35:43.935Z,6.50
2018-06-14T20:39:50.215Z,6.67
2018-06-14T20:43:55.887Z,8.87
2018-06-14T20:47:59.548Z,10.10
2018-06-14T20:52:03.089Z,13.07
2018-06-14T20:56:08.974Z,13.00
2018-06-14T21:00:13.572Z,10.33
2018-06-14T21:04:17.949Z,7.50
2018-06-14T21:08:21.886Z,8.23
2018-06-14T21:12:25.470Z,8.33
2018-06-14T21:16:29.031Z,8.07
2018-06-14T21:20:32.740Z,8.77
2018-06-14T21:24:36.306Z,8.87
2018-06-14T21:28:39.866Z,7.07
2018-06-14T21:32:44.219Z,7.67
2018-06-14T21:36:48.678Z,8.67
2018-06-14T21:40:52.279Z,8.83
2018-06-14T21:44:56.093Z,8.87
2018-06-14T21:48:59.648Z,8.97
2018-06-14T21:53:03.267Z,8.60
2018-06-14T21:57:07.058Z,8.30
2018-06-14T22:01:12.274Z,8.70
2018-06-14T22:05:17.318Z,9.53
2018-06-14T22:09:20.951Z,9.23
2018-06-14T22:13:24.626Z,8.97
2018-06-14T22:17:28.294Z,9.73
2018-06-14T22:21:31.836Z,9.20
2018-06-14T22:25:35.876Z,9.80
2018-06-14T22:29:39.609Z,9.77
2018-06-14T22:33:54.227Z,9.27
2018-06-14T22:37:57.870Z,10.57
2018-06-14T22:42:01.523Z,10.53
2018-06-14T22:46:05.735Z,9.20
2018-06-14T22:50:09.383Z,7.67
2018-06-14T22:54:14.121Z,8.23
2018-06-14T22:58:18.126Z,7.40
2018-06-14T23:02:21.715Z,7.13
2018-06-14T23:06:25.315Z,6.47
2018-06-14T23:10:40.916Z,5.53
2018-06-14T23:14:45.812Z,6.00
2018-06-14T23:18:49.561Z,6.23
2018-06-14T23:22:54.525Z,6.43
2018-06-14T23:27:04.664Z,6.37
2018-06-14T23:31:08.435Z,6.73
2018-06-14T23:35:12.024Z,6.40
2018-06-14T23:39:16.450Z,6.33
2018-06-14T23:43:20.122Z,6.00
2018-06-14T23:47:23.826Z,6.43
2018-06-14T23:51:27.300Z,6.30
2018-06-14T23:55:30.954Z,5.63
2018-06-14T23:59:34.706Z,5.67
